sensor_id;sensor_type;location;lat;lon;timestamp;P1;durP1;ratioP1;P2;durP2;ratioP2
12312;SDS011;6220;53.580;9.758;2024-01-10T00:01:06;26.10;;;19.07;;
12312;SDS011;6220;53.580;9.758;2024-01-10T00:03:32;27.50;;;19.43;;
12312;SDS011;6220;53.580;9.758;2024-01-10T00:05:58;26.83;;;18.67;;
12312;SDS011;6220;53.580;9.758;2024-01-10T00:08:24;27.53;;;18.73;;
12312;SDS011;6220;53.580;9.758;2024-01-10T00:10:49;27.87;;;17.50;;
12312;SDS011;6220;53.580;9.758;2024-01-10T00:13:16;25.70;;;17.20;;
12312;SDS011;6220;53.580;9.758;2024-01-10T00:15:41;24.23;;;17.30;;
12312;SDS011;6220;53.580;9.758;2024-01-10T00:18:07;21.60;;;15.97;;
12312;SDS011;6220;53.580;9.758;2024-01-10T00:20:32;25.10;;;17.70;;
12312;SDS011;6220;53.580;9.758;2024-01-10T00:22:57;22.93;;;16.40;;
12312;SDS011;6220;53.580;9.758;2024-01-10T00:25:23;22.80;;;16.20;;
12312;SDS011;6220;53.580;9.758;2024-01-10T00:27:48;22.57;;;15.83;;
12312;SDS011;6220;53.580;9.758;2024-01-10T00:30:13;24.57;;;16.10;;
12312;SDS011;6220;53.580;9.758;2024-01-10T00:32:39;23.27;;;15.73;;
12312;SDS011;6220;53.580;9.758;2024-01-10T00:35:04;25.03;;;16.00;;
12312;SDS011;6220;53.580;9.758;2024-01-10T00:37:29;21.70;;;15.17;;
12312;SDS011;6220;53.580;9.758;2024-01-10T00:39:55;22.47;;;16.23;;
12312;SDS011;6220;53.580;9.758;2024-01-10T00:42:21;23.37;;;16.13;;
12312;SDS011;6220;53.580;9.758;2024-01-10T00:44:47;24.97;;;15.73;;
12312;SDS011;6220;53.580;9.758;2024-01-10T00:47:12;19.53;;;14.27;;
12312;SDS011;6220;53.580;9.758;2024-01-10T00:49:37;23.40;;;15.83;;
12312;SDS011;6220;53.580;9.758;2024-01-10T00:52:03;23.13;;;15.80;;
12312;SDS011;6220;53.580;9.758;2024-01-10T00:54:29;21.63;;;14.50;;
12312;SDS011;6220;53.580;9.758;2024-01-10T00:56:54;20.83;;;14.70;;
12312;SDS011;6220;53.580;9.758;2024-01-10T00:59:19;21.03;;;15.13;;
12312;SDS011;6220;53.580;9.758;2024-01-10T01:01:44;21.57;;;14.47;;
12312;SDS011;6220;53.580;9.758;2024-01-10T01:04:10;20.10;;;14.10;;
12312;SDS011;6220;53.580;9.758;2024-01-10T01:06:36;21.27;;;13.53;;
12312;SDS011;6220;53.580;9.758;2024-01-10T01:09:02;20.97;;;13.90;;
12312;SDS011;6220;53.580;9.758;2024-01-10T01:11:27;21.33;;;14.33;;
12312;SDS011;6220;53.580;9.758;2024-01-10T01:13:52;20.77;;;13.53;;
12312;SDS011;6220;53.580;9.758;2024-01-10T01:16:18;19.40;;;14.60;;
12312;SDS011;6220;53.580;9.758;2024-01-10T01:18:44;19.83;;;13.73;;
12312;SDS011;6220;53.580;9.758;2024-01-10T01:21:10;20.70;;;14.43;;
12312;SDS011;6220;53.580;9.758;2024-01-10T01:23:36;21.90;;;15.77;;
12312;SDS011;6220;53.580;9.758;2024-01-10T01:26:01;20.27;;;14.83;;
12312;SDS011;6220;53.580;9.758;2024-01-10T01:28:28;20.53;;;14.27;;
12312;SDS011;6220;53.580;9.758;2024-01-10T01:30:54;19.00;;;14.20;;
12312;SDS011;6220;53.580;9.758;2024-01-10T01:33:19;20.07;;;14.23;;
12312;SDS011;6220;53.580;9.758;2024-01-10T01:35:45;19.37;;;13.73;;
12312;SDS011;6220;53.580;9.758;2024-01-10T01:38:10;19.87;;;14.37;;
12312;SDS011;6220;53.580;9.758;2024-01-10T01:40:35;20.17;;;13.83;;
12312;SDS011;6220;53.580;9.758;2024-01-10T01:43:00;16.17;;;12.73;;
12312;SDS011;6220;53.580;9.758;2024-01-10T01:45:26;19.27;;;13.73;;
12312;SDS011;6220;53.580;9.758;2024-01-10T01:47:51;20.27;;;14.90;;
12312;SDS011;6220;53.580;9.758;2024-01-10T01:50:16;20.87;;;15.07;;
12312;SDS011;6220;53.580;9.758;2024-01-10T01:52:43;22.37;;;15.33;;
12312;SDS011;6220;53.580;9.758;2024-01-10T01:55:08;21.83;;;15.87;;
12312;SDS011;6220;53.580;9.758;2024-01-10T01:57:35;20.33;;;15.13;;
12312;SDS011;6220;53.580;9.758;2024-01-10T02:00:01;21.37;;;15.23;;
12312;SDS011;6220;53.580;9.758;2024-01-10T02:02:28;20.53;;;14.90;;
12312;SDS011;6220;53.580;9.758;2024-01-10T02:04:54;21.27;;;15.07;;
12312;SDS011;6220;53.580;9.758;2024-01-10T02:07:21;22.23;;;15.23;;
12312;SDS011;6220;53.580;9.758;2024-01-10T02:09:46;19.33;;;14.67;;
12312;SDS011;6220;53.580;9.758;2024-01-10T02:12:13;20.77;;;15.60;;
12312;SDS011;6220;53.580;9.758;2024-01-10T02:14:38;20.40;;;14.60;;
12312;SDS011;6220;53.580;9.758;2024-01-10T02:17:03;17.00;;;12.93;;
12312;SDS011;6220;53.580;9.758;2024-01-10T02:19:30;19.00;;;13.97;;
12312;SDS011;6220;53.580;9.758;2024-01-10T02:21:57;19.03;;;13.93;;
12312;SDS011;6220;53.580;9.758;2024-01-10T02:24:22;19.53;;;14.10;;
12312;SDS011;6220;53.580;9.758;2024-01-10T02:26:48;16.23;;;12.53;;
12312;SDS011;6220;53.580;9.758;2024-01-10T02:29:15;16.90;;;13.20;;
12312;SDS011;6220;53.580;9.758;2024-01-10T02:31:40;18.63;;;13.60;;
12312;SDS011;6220;53.580;9.758;2024-01-10T02:34:05;19.27;;;13.53;;
12312;SDS011;6220;53.580;9.758;2024-01-10T02:36:31;18.17;;;13.30;;
12312;SDS011;6220;53.580;9.758;2024-01-10T02:38:56;18.97;;;13.37;;
12312;SDS011;6220;53.580;9.758;2024-01-10T02:41:22;19.90;;;14.43;;
12312;SDS011;6220;53.580;9.758;2024-01-10T02:43:48;18.57;;;13.63;;
12312;SDS011;6220;53.580;9.758;2024-01-10T02:46:13;18.30;;;13.93;;
12312;SDS011;6220;53.580;9.758;2024-01-10T02:48:38;21.17;;;14.83;;
12312;SDS011;6220;53.580;9.758;2024-01-10T02:51:04;21.83;;;15.33;;
12312;SDS011;6220;53.580;9.758;2024-01-10T02:53:29;21.03;;;14.60;;
12312;SDS011;6220;53.580;9.758;2024-01-10T02:55:55;22.23;;;15.63;;
12312;SDS011;6220;53.580;9.758;2024-01-10T02:58:20;22.80;;;16.23;;
12312;SDS011;6220;53.580;9.758;2024-01-10T03:00:47;23.10;;;14.83;;
12312;SDS011;6220;53.580;9.758;2024-01-10T03:03:13;22.60;;;15.97;;
12312;SDS011;6220;53.580;9.758;2024-01-10T03:05:38;23.97;;;15.13;;
12312;SDS011;6220;53.580;9.758;2024-01-10T03:08:04;24.23;;;16.93;;
12312;SDS011;6220;53.580;9.758;2024-01-10T03:10:34;20.40;;;15.37;;
12312;SDS011;6220;53.580;9.758;2024-01-10T03:13:00;21.97;;;15.70;;
12312;SDS011;6220;53.580;9.758;2024-01-10T03:15:26;22.60;;;16.07;;
12312;SDS011;6220;53.580;9.758;2024-01-10T03:17:51;22.27;;;15.90;;
12312;SDS011;6220;53.580;9.758;2024-01-10T03:20:16;21.60;;;15.13;;
12312;SDS011;6220;53.580;9.758;2024-01-10T03:22:42;20.10;;;15.20;;
12312;SDS011;6220;53.580;9.758;2024-01-10T03:25:07;20.10;;;15.23;;
12312;SDS011;6220;53.580;9.758;2024-01-10T03:27:32;19.93;;;14.50;;
12312;SDS011;6220;53.580;9.758;2024-01-10T03:29:58;20.43;;;14.33;;
12312;SDS011;6220;53.580;9.758;2024-01-10T03:32:24;21.00;;;15.43;;
12312;SDS011;6220;53.580;9.758;2024-01-10T03:34:50;22.03;;;14.97;;
12312;SDS011;6220;53.580;9.758;2024-01-10T03:37:16;22.20;;;15.67;;
12312;SDS011;6220;53.580;9.758;2024-01-10T03:39:41;24.00;;;16.73;;
12312;SDS011;6220;53.580;9.758;2024-01-10T03:42:07;21.73;;;16.57;;
12312;SDS011;6220;53.580;9.758;2024-01-10T03:44:32;22.03;;;16.17;;
12312;SDS011;6220;53.580;9.758;2024-01-10T03:46:57;27.20;;;15.90;;
12312;SDS011;6220;53.580;9.758;2024-01-10T03:49:23;22.17;;;15.97;;
12312;SDS011;6220;53.580;9.758;2024-01-10T03:51:48;23.97;;;16.23;;
12312;SDS011;6220;53.580;9.758;2024-01-10T03:54:15;24.50;;;17.20;;
12312;SDS011;6220;53.580;9.758;2024-01-10T03:56:40;23.00;;;16.93;;
12312;SDS011;6220;53.580;9.758;2024-01-10T03:59:05;21.80;;;16.10;;
12312;SDS011;6220;53.580;9.758;2024-01-10T04:01:31;22.53;;;17.00;;
12312;SDS011;6220;53.580;9.758;2024-01-10T04:03:56;25.70;;;17.20;;
12312;SDS011;6220;53.580;9.758;2024-01-10T04:06:21;24.60;;;17.10;;
12312;SDS011;6220;53.580;9.758;2024-01-10T04:08:47;26.33;;;17.83;;
12312;SDS011;6220;53.580;9.758;2024-01-10T04:11:12;25.97;;;17.50;;
12312;SDS011;6220;53.580;9.758;2024-01-10T04:13:37;25.80;;;18.63;;
12312;SDS011;6220;53.580;9.758;2024-01-10T04:16:03;27.60;;;17.97;;
12312;SDS011;6220;53.580;9.758;2024-01-10T04:18:28;24.33;;;16.67;;
12312;SDS011;6220;53.580;9.758;2024-01-10T04:20:54;24.17;;;17.00;;
12312;SDS011;6220;53.580;9.758;2024-01-10T04:23:19;24.10;;;16.77;;
12312;SDS011;6220;53.580;9.758;2024-01-10T04:25:44;22.13;;;15.67;;
12312;SDS011;6220;53.580;9.758;2024-01-10T04:28:10;22.27;;;15.83;;
12312;SDS011;6220;53.580;9.758;2024-01-10T04:30:35;22.13;;;16.30;;
12312;SDS011;6220;53.580;9.758;2024-01-10T04:33:01;20.33;;;15.57;;
12312;SDS011;6220;53.580;9.758;2024-01-10T04:35:27;23.83;;;15.97;;
12312;SDS011;6220;53.580;9.758;2024-01-10T04:37:53;23.03;;;16.90;;
12312;SDS011;6220;53.580;9.758;2024-01-10T04:40:18;22.53;;;16.43;;
12312;SDS011;6220;53.580;9.758;2024-01-10T04:42:44;23.70;;;16.97;;
12312;SDS011;6220;53.580;9.758;2024-01-10T04:45:09;24.33;;;17.57;;
12312;SDS011;6220;53.580;9.758;2024-01-10T04:47:34;26.93;;;18.40;;
12312;SDS011;6220;53.580;9.758;2024-01-10T04:50:01;24.00;;;16.80;;
12312;SDS011;6220;53.580;9.758;2024-01-10T04:52:26;26.83;;;18.93;;
12312;SDS011;6220;53.580;9.758;2024-01-10T04:54:51;22.67;;;17.13;;
12312;SDS011;6220;53.580;9.758;2024-01-10T04:57:18;24.27;;;17.20;;
12312;SDS011;6220;53.580;9.758;2024-01-10T04:59:45;27.17;;;17.47;;
12312;SDS011;6220;53.580;9.758;2024-01-10T05:02:10;27.87;;;18.57;;
12312;SDS011;6220;53.580;9.758;2024-01-10T05:04:35;26.43;;;17.90;;
12312;SDS011;6220;53.580;9.758;2024-01-10T05:07:01;27.23;;;17.80;;
12312;SDS011;6220;53.580;9.758;2024-01-10T05:09:26;29.77;;;17.70;;
12312;SDS011;6220;53.580;9.758;2024-01-10T05:11:52;25.70;;;17.70;;
12312;SDS011;6220;53.580;9.758;2024-01-10T05:14:18;24.07;;;16.27;;
12312;SDS011;6220;53.580;9.758;2024-01-10T05:16:47;21.83;;;15.37;;
12312;SDS011;6220;53.580;9.758;2024-01-10T05:19:13;20.07;;;14.27;;
12312;SDS011;6220;53.580;9.758;2024-01-10T05:21:38;23.03;;;14.83;;
12312;SDS011;6220;53.580;9.758;2024-01-10T05:24:04;17.13;;;13.20;;
12312;SDS011;6220;53.580;9.758;2024-01-10T05:26:30;17.97;;;12.97;;
12312;SDS011;6220;53.580;9.758;2024-01-10T05:28:55;16.33;;;12.37;;
12312;SDS011;6220;53.580;9.758;2024-01-10T05:31:20;16.60;;;13.80;;
12312;SDS011;6220;53.580;9.758;2024-01-10T05:33:46;14.20;;;11.57;;
12312;SDS011;6220;53.580;9.758;2024-01-10T05:36:11;15.23;;;11.10;;
12312;SDS011;6220;53.580;9.758;2024-01-10T05:38:36;13.57;;;10.23;;
12312;SDS011;6220;53.580;9.758;2024-01-10T05:41:02;15.23;;;11.47;;
12312;SDS011;6220;53.580;9.758;2024-01-10T05:43:27;14.60;;;10.83;;
12312;SDS011;6220;53.580;9.758;2024-01-10T05:45:53;12.60;;;10.17;;
12312;SDS011;6220;53.580;9.758;2024-01-10T05:48:19;11.67;;;9.43;;
12312;SDS011;6220;53.580;9.758;2024-01-10T05:50:45;12.70;;;9.83;;
12312;SDS011;6220;53.580;9.758;2024-01-10T05:53:10;13.10;;;9.43;;
12312;SDS011;6220;53.580;9.758;2024-01-10T05:55:37;11.73;;;8.97;;
12312;SDS011;6220;53.580;9.758;2024-01-10T05:58:03;11.40;;;9.30;;
12312;SDS011;6220;53.580;9.758;2024-01-10T06:00:29;10.63;;;8.70;;
12312;SDS011;6220;53.580;9.758;2024-01-10T06:02:54;11.60;;;9.00;;
12312;SDS011;6220;53.580;9.758;2024-01-10T06:05:20;12.40;;;9.40;;
12312;SDS011;6220;53.580;9.758;2024-01-10T06:07:48;11.93;;;8.97;;
12312;SDS011;6220;53.580;9.758;2024-01-10T06:10:14;13.27;;;9.80;;
12312;SDS011;6220;53.580;9.758;2024-01-10T06:12:39;10.20;;;8.60;;
12312;SDS011;6220;53.580;9.758;2024-01-10T06:15:05;10.63;;;8.80;;
12312;SDS011;6220;53.580;9.758;2024-01-10T06:17:31;11.30;;;9.33;;
12312;SDS011;6220;53.580;9.758;2024-01-10T06:19:57;12.23;;;8.77;;
12312;SDS011;6220;53.580;9.758;2024-01-10T06:22:25;13.30;;;9.03;;
12312;SDS011;6220;53.580;9.758;2024-01-10T06:24:51;10.53;;;8.63;;
12312;SDS011;6220;53.580;9.758;2024-01-10T06:27:16;9.67;;;8.27;;
12312;SDS011;6220;53.580;9.758;2024-01-10T06:29:43;10.63;;;8.23;;
12312;SDS011;6220;53.580;9.758;2024-01-10T06:32:10;10.43;;;8.43;;
12312;SDS011;6220;53.580;9.758;2024-01-10T06:34:35;9.53;;;8.40;;
12312;SDS011;6220;53.580;9.758;2024-01-10T06:37:01;11.67;;;8.37;;
12312;SDS011;6220;53.580;9.758;2024-01-10T06:39:28;11.77;;;9.07;;
12312;SDS011;6220;53.580;9.758;2024-01-10T06:41:53;10.93;;;8.07;;
12312;SDS011;6220;53.580;9.758;2024-01-10T06:44:20;10.07;;;7.83;;
12312;SDS011;6220;53.580;9.758;2024-01-10T06:46:47;11.53;;;9.20;;
12312;SDS011;6220;53.580;9.758;2024-01-10T06:49:12;10.97;;;9.03;;
12312;SDS011;6220;53.580;9.758;2024-01-10T06:51:37;11.77;;;8.67;;
12312;SDS011;6220;53.580;9.758;2024-01-10T06:54:03;11.63;;;8.90;;
12312;SDS011;6220;53.580;9.758;2024-01-10T06:56:29;10.97;;;8.30;;
12312;SDS011;6220;53.580;9.758;2024-01-10T06:58:55;10.80;;;8.20;;
12312;SDS011;6220;53.580;9.758;2024-01-10T07:01:21;10.03;;;7.67;;
12312;SDS011;6220;53.580;9.758;2024-01-10T07:03:51;10.63;;;7.43;;
12312;SDS011;6220;53.580;9.758;2024-01-10T07:06:17;8.37;;;7.00;;
12312;SDS011;6220;53.580;9.758;2024-01-10T07:08:42;11.03;;;7.73;;
12312;SDS011;6220;53.580;9.758;2024-01-10T07:11:09;9.13;;;7.50;;
12312;SDS011;6220;53.580;9.758;2024-01-10T07:13:36;10.93;;;7.70;;
12312;SDS011;6220;53.580;9.758;2024-01-10T07:16:01;11.47;;;7.87;;
12312;SDS011;6220;53.580;9.758;2024-01-10T07:18:28;10.07;;;7.87;;
12312;SDS011;6220;53.580;9.758;2024-01-10T07:20:54;10.37;;;7.77;;
12312;SDS011;6220;53.580;9.758;2024-01-10T07:23:19;11.43;;;8.87;;
12312;SDS011;6220;53.580;9.758;2024-01-10T07:25:45;10.00;;;8.57;;
12312;SDS011;6220;53.580;9.758;2024-01-10T07:28:10;10.50;;;8.40;;
12312;SDS011;6220;53.580;9.758;2024-01-10T07:30:35;10.03;;;8.33;;
12312;SDS011;6220;53.580;9.758;2024-01-10T07:33:01;11.00;;;8.00;;
12312;SDS011;6220;53.580;9.758;2024-01-10T07:35:27;10.63;;;8.53;;
12312;SDS011;6220;53.580;9.758;2024-01-10T07:37:54;11.27;;;9.10;;
12312;SDS011;6220;53.580;9.758;2024-01-10T07:40:21;11.47;;;9.00;;
12312;SDS011;6220;53.580;9.758;2024-01-10T07:42:48;10.87;;;8.53;;
12312;SDS011;6220;53.580;9.758;2024-01-10T07:45:15;10.63;;;9.07;;
12312;SDS011;6220;53.580;9.758;2024-01-10T07:47:41;12.70;;;9.10;;
12312;SDS011;6220;53.580;9.758;2024-01-10T07:50:07;10.43;;;8.47;;
12312;SDS011;6220;53.580;9.758;2024-01-10T07:52:33;10.93;;;8.30;;
12312;SDS011;6220;53.580;9.758;2024-01-10T07:54:59;11.03;;;8.47;;
12312;SDS011;6220;53.580;9.758;2024-01-10T07:57:24;10.87;;;8.20;;
12312;SDS011;6220;53.580;9.758;2024-01-10T07:59:50;11.07;;;7.53;;
12312;SDS011;6220;53.580;9.758;2024-01-10T08:02:15;8.80;;;7.53;;
12312;SDS011;6220;53.580;9.758;2024-01-10T08:04:41;9.27;;;7.33;;
12312;SDS011;6220;53.580;9.758;2024-01-10T08:07:07;9.33;;;8.00;;
12312;SDS011;6220;53.580;9.758;2024-01-10T08:09:32;9.40;;;7.90;;
12312;SDS011;6220;53.580;9.758;2024-01-10T08:11:58;9.77;;;7.30;;
12312;SDS011;6220;53.580;9.758;2024-01-10T08:14:23;9.33;;;7.77;;
12312;SDS011;6220;53.580;9.758;2024-01-10T08:16:49;9.13;;;7.63;;
12312;SDS011;6220;53.580;9.758;2024-01-10T08:19:18;10.43;;;7.73;;
12312;SDS011;6220;53.580;9.758;2024-01-10T08:21:43;9.80;;;8.80;;
12312;SDS011;6220;53.580;9.758;2024-01-10T08:24:08;10.50;;;8.20;;
12312;SDS011;6220;53.580;9.758;2024-01-10T08:26:34;10.10;;;8.43;;
12312;SDS011;6220;53.580;9.758;2024-01-10T08:29:01;10.63;;;8.57;;
12312;SDS011;6220;53.580;9.758;2024-01-10T08:31:27;10.73;;;8.10;;
12312;SDS011;6220;53.580;9.758;2024-01-10T08:33:52;9.60;;;8.13;;
12312;SDS011;6220;53.580;9.758;2024-01-10T08:36:18;10.13;;;9.07;;
12312;SDS011;6220;53.580;9.758;2024-01-10T08:38:43;9.57;;;8.53;;
12312;SDS011;6220;53.580;9.758;2024-01-10T08:41:09;9.83;;;8.47;;
12312;SDS011;6220;53.580;9.758;2024-01-10T08:43:36;9.30;;;8.30;;
12312;SDS011;6220;53.580;9.758;2024-01-10T08:46:04;11.43;;;8.80;;
12312;SDS011;6220;53.580;9.758;2024-01-10T08:48:31;10.90;;;9.20;;
12312;SDS011;6220;53.580;9.758;2024-01-10T08:50:56;10.23;;;9.13;;
12312;SDS011;6220;53.580;9.758;2024-01-10T08:53:22;10.63;;;8.97;;
12312;SDS011;6220;53.580;9.758;2024-01-10T08:55:47;11.57;;;9.67;;
12312;SDS011;6220;53.580;9.758;2024-01-10T08:58:13;10.63;;;9.47;;
12312;SDS011;6220;53.580;9.758;2024-01-10T09:00:38;11.23;;;9.17;;
12312;SDS011;6220;53.580;9.758;2024-01-10T09:03:04;11.33;;;9.63;;
12312;SDS011;6220;53.580;9.758;2024-01-10T09:05:29;12.03;;;10.17;;
12312;SDS011;6220;53.580;9.758;2024-01-10T09:07:55;11.47;;;10.00;;
12312;SDS011;6220;53.580;9.758;2024-01-10T09:10:20;12.53;;;9.33;;
12312;SDS011;6220;53.580;9.758;2024-01-10T09:12:46;11.47;;;9.80;;
12312;SDS011;6220;53.580;9.758;2024-01-10T09:15:12;10.20;;;8.97;;
12312;SDS011;6220;53.580;9.758;2024-01-10T09:17:39;10.67;;;9.57;;
12312;SDS011;6220;53.580;9.758;2024-01-10T09:20:06;12.33;;;9.83;;
12312;SDS011;6220;53.580;9.758;2024-01-10T09:22:31;10.80;;;9.70;;
12312;SDS011;6220;53.580;9.758;2024-01-10T09:24:58;11.70;;;9.67;;
12312;SDS011;6220;53.580;9.758;2024-01-10T09:27:29;12.70;;;9.50;;
12312;SDS011;6220;53.580;9.758;2024-01-10T09:29:58;11.67;;;10.33;;
12312;SDS011;6220;53.580;9.758;2024-01-10T09:32:24;11.30;;;9.57;;
12312;SDS011;6220;53.580;9.758;2024-01-10T09:34:50;12.07;;;9.77;;
12312;SDS011;6220;53.580;9.758;2024-01-10T09:37:15;12.17;;;10.37;;
12312;SDS011;6220;53.580;9.758;2024-01-10T09:39:41;11.50;;;9.83;;
12312;SDS011;6220;53.580;9.758;2024-01-10T09:42:07;11.40;;;10.00;;
12312;SDS011;6220;53.580;9.758;2024-01-10T09:44:33;13.27;;;10.60;;
12312;SDS011;6220;53.580;9.758;2024-01-10T09:46:58;12.13;;;10.23;;
12312;SDS011;6220;53.580;9.758;2024-01-10T09:49:24;12.43;;;10.30;;
12312;SDS011;6220;53.580;9.758;2024-01-10T09:51:50;12.13;;;10.10;;
12312;SDS011;6220;53.580;9.758;2024-01-10T09:54:19;12.20;;;10.43;;
12312;SDS011;6220;53.580;9.758;2024-01-10T09:56:46;14.23;;;11.23;;
12312;SDS011;6220;53.580;9.758;2024-01-10T09:59:12;12.37;;;10.53;;
12312;SDS011;6220;53.580;9.758;2024-01-10T10:01:38;13.33;;;10.67;;
12312;SDS011;6220;53.580;9.758;2024-01-10T10:04:04;13.67;;;11.27;;
12312;SDS011;6220;53.580;9.758;2024-01-10T10:06:32;16.30;;;12.87;;
12312;SDS011;6220;53.580;9.758;2024-01-10T10:08:58;13.37;;;11.60;;
12312;SDS011;6220;53.580;9.758;2024-01-10T10:11:24;12.57;;;10.63;;
12312;SDS011;6220;53.580;9.758;2024-01-10T10:13:49;13.07;;;10.73;;
12312;SDS011;6220;53.580;9.758;2024-01-10T10:16:19;13.33;;;11.00;;
12312;SDS011;6220;53.580;9.758;2024-01-10T10:18:49;13.03;;;10.57;;
12312;SDS011;6220;53.580;9.758;2024-01-10T10:21:15;14.27;;;11.40;;
12312;SDS011;6220;53.580;9.758;2024-01-10T10:23:42;14.07;;;11.30;;
12312;SDS011;6220;53.580;9.758;2024-01-10T10:26:12;12.90;;;11.30;;
12312;SDS011;6220;53.580;9.758;2024-01-10T10:28:43;12.73;;;11.40;;
12312;SDS011;6220;53.580;9.758;2024-01-10T10:31:09;14.57;;;11.30;;
12312;SDS011;6220;53.580;9.758;2024-01-10T10:33:35;13.63;;;11.47;;
12312;SDS011;6220;53.580;9.758;2024-01-10T10:36:01;13.97;;;11.90;;
12312;SDS011;6220;53.580;9.758;2024-01-10T10:38:34;14.23;;;11.83;;
12312;SDS011;6220;53.580;9.758;2024-01-10T10:41:04;13.67;;;11.27;;
12312;SDS011;6220;53.580;9.758;2024-01-10T10:43:30;14.63;;;11.97;;
12312;SDS011;6220;53.580;9.758;2024-01-10T10:46:01;13.30;;;11.70;;
12312;SDS011;6220;53.580;9.758;2024-01-10T10:48:27;14.60;;;11.80;;
12312;SDS011;6220;53.580;9.758;2024-01-10T10:53:34;13.20;;;11.23;;
12312;SDS011;6220;53.580;9.758;2024-01-10T10:56:04;14.13;;;12.03;;
12312;SDS011;6220;53.580;9.758;2024-01-10T10:58:34;15.77;;;13.70;;
12312;SDS011;6220;53.580;9.758;2024-01-10T11:01:06;15.23;;;12.20;;
12312;SDS011;6220;53.580;9.758;2024-01-10T11:03:33;16.67;;;12.57;;
12312;SDS011;6220;53.580;9.758;2024-01-10T11:06:01;16.03;;;12.13;;
12312;SDS011;6220;53.580;9.758;2024-01-10T11:08:27;14.07;;;11.90;;
12312;SDS011;6220;53.580;9.758;2024-01-10T11:10:53;16.03;;;11.93;;
12312;SDS011;6220;53.580;9.758;2024-01-10T11:16:04;13.57;;;11.17;;
12312;SDS011;6220;53.580;9.758;2024-01-10T11:24:27;13.07;;;10.57;;
12312;SDS011;6220;53.580;9.758;2024-01-10T11:27:12;11.73;;;10.17;;
12312;SDS011;6220;53.580;9.758;2024-01-10T11:29:38;13.60;;;10.53;;
12312;SDS011;6220;53.580;9.758;2024-01-10T11:32:05;13.60;;;11.23;;
12312;SDS011;6220;53.580;9.758;2024-01-10T11:34:36;12.60;;;11.30;;
12312;SDS011;6220;53.580;9.758;2024-01-10T11:37:11;11.63;;;10.40;;
12312;SDS011;6220;53.580;9.758;2024-01-10T11:39:37;12.20;;;10.53;;
12312;SDS011;6220;53.580;9.758;2024-01-10T11:42:07;11.90;;;9.70;;
12312;SDS011;6220;53.580;9.758;2024-01-10T11:44:34;11.70;;;10.17;;
12312;SDS011;6220;53.580;9.758;2024-01-10T11:47:01;13.03;;;10.50;;
12312;SDS011;6220;53.580;9.758;2024-01-10T11:49:29;10.53;;;9.30;;
12312;SDS011;6220;53.580;9.758;2024-01-10T11:51:56;12.67;;;10.73;;
12312;SDS011;6220;53.580;9.758;2024-01-10T11:54:35;12.27;;;10.33;;
12312;SDS011;6220;53.580;9.758;2024-01-10T11:57:10;12.90;;;10.97;;
12312;SDS011;6220;53.580;9.758;2024-01-10T11:59:46;11.57;;;10.33;;
12312;SDS011;6220;53.580;9.758;2024-01-10T12:02:13;12.37;;;10.70;;
12312;SDS011;6220;53.580;9.758;2024-01-10T12:04:41;13.57;;;10.30;;
12312;SDS011;6220;53.580;9.758;2024-01-10T12:07:10;14.83;;;11.17;;
12312;SDS011;6220;53.580;9.758;2024-01-10T12:09:36;11.77;;;10.50;;
12312;SDS011;6220;53.580;9.758;2024-01-10T12:12:02;11.93;;;10.63;;
12312;SDS011;6220;53.580;9.758;2024-01-10T12:14:28;11.50;;;10.10;;
12312;SDS011;6220;53.580;9.758;2024-01-10T12:16:54;11.87;;;10.33;;
12312;SDS011;6220;53.580;9.758;2024-01-10T12:19:19;12.17;;;10.10;;
12312;SDS011;6220;53.580;9.758;2024-01-10T12:21:44;11.20;;;9.97;;
12312;SDS011;6220;53.580;9.758;2024-01-10T12:24:10;10.97;;;9.30;;
12312;SDS011;6220;53.580;9.758;2024-01-10T12:26:43;11.20;;;9.70;;
12312;SDS011;6220;53.580;9.758;2024-01-10T12:29:09;11.43;;;9.50;;
12312;SDS011;6220;53.580;9.758;2024-01-10T12:31:35;10.80;;;9.70;;
12312;SDS011;6220;53.580;9.758;2024-01-10T12:34:00;11.97;;;9.90;;
12312;SDS011;6220;53.580;9.758;2024-01-10T12:36:25;9.07;;;8.17;;
12312;SDS011;6220;53.580;9.758;2024-01-10T12:38:51;9.80;;;8.80;;
12312;SDS011;6220;53.580;9.758;2024-01-10T12:41:17;9.53;;;8.53;;
12312;SDS011;6220;53.580;9.758;2024-01-10T12:43:43;11.93;;;9.17;;
12312;SDS011;6220;53.580;9.758;2024-01-10T12:46:09;10.20;;;8.97;;
12312;SDS011;6220;53.580;9.758;2024-01-10T12:48:36;9.83;;;8.83;;
12312;SDS011;6220;53.580;9.758;2024-01-10T12:51:03;9.87;;;8.87;;
12312;SDS011;6220;53.580;9.758;2024-01-10T12:53:35;11.67;;;9.17;;
12312;SDS011;6220;53.580;9.758;2024-01-10T12:56:02;10.57;;;9.00;;
12312;SDS011;6220;53.580;9.758;2024-01-10T12:58:29;10.30;;;9.17;;
12312;SDS011;6220;53.580;9.758;2024-01-10T13:00:55;9.70;;;8.70;;
12312;SDS011;6220;53.580;9.758;2024-01-10T13:03:20;9.13;;;8.23;;
12312;SDS011;6220;53.580;9.758;2024-01-10T13:05:46;10.07;;;8.93;;
12312;SDS011;6220;53.580;9.758;2024-01-10T13:08:11;9.80;;;8.80;;
12312;SDS011;6220;53.580;9.758;2024-01-10T13:10:37;9.63;;;8.70;;
12312;SDS011;6220;53.580;9.758;2024-01-10T13:13:03;9.30;;;8.37;;
12312;SDS011;6220;53.580;9.758;2024-01-10T13:15:30;9.93;;;8.90;;
12312;SDS011;6220;53.580;9.758;2024-01-10T13:17:55;9.27;;;8.00;;
12312;SDS011;6220;53.580;9.758;2024-01-10T13:20:21;9.93;;;8.80;;
12312;SDS011;6220;53.580;9.758;2024-01-10T13:22:46;8.77;;;7.87;;
12312;SDS011;6220;53.580;9.758;2024-01-10T13:25:11;9.10;;;8.13;;
12312;SDS011;6220;53.580;9.758;2024-01-10T13:27:37;8.67;;;7.77;;
12312;SDS011;6220;53.580;9.758;2024-01-10T13:30:04;8.47;;;7.57;;
12312;SDS011;6220;53.580;9.758;2024-01-10T13:32:31;8.67;;;7.60;;
12312;SDS011;6220;53.580;9.758;2024-01-10T13:34:57;8.17;;;6.80;;
12312;SDS011;6220;53.580;9.758;2024-01-10T13:37:23;8.47;;;7.40;;
12312;SDS011;6220;53.580;9.758;2024-01-10T13:39:48;8.53;;;7.03;;
12312;SDS011;6220;53.580;9.758;2024-01-10T13:42:13;8.00;;;7.20;;
12312;SDS011;6220;53.580;9.758;2024-01-10T13:44:39;8.97;;;8.07;;
12312;SDS011;6220;53.580;9.758;2024-01-10T13:47:05;8.43;;;7.53;;
12312;SDS011;6220;53.580;9.758;2024-01-10T13:49:30;9.83;;;7.53;;
12312;SDS011;6220;53.580;9.758;2024-01-10T13:51:55;9.97;;;8.03;;
12312;SDS011;6220;53.580;9.758;2024-01-10T13:54:21;9.07;;;7.77;;
12312;SDS011;6220;53.580;9.758;2024-01-10T13:56:47;8.97;;;7.47;;
12312;SDS011;6220;53.580;9.758;2024-01-10T13:59:12;9.23;;;7.83;;
12312;SDS011;6220;53.580;9.758;2024-01-10T14:01:37;8.73;;;7.83;;
12312;SDS011;6220;53.580;9.758;2024-01-10T14:04:03;8.73;;;7.60;;
12312;SDS011;6220;53.580;9.758;2024-01-10T14:06:30;8.67;;;7.00;;
12312;SDS011;6220;53.580;9.758;2024-01-10T14:08:56;8.73;;;7.13;;
12312;SDS011;6220;53.580;9.758;2024-01-10T14:11:22;8.20;;;7.33;;
12312;SDS011;6220;53.580;9.758;2024-01-10T14:13:48;8.23;;;7.23;;
12312;SDS011;6220;53.580;9.758;2024-01-10T14:16:14;7.93;;;7.13;;
12312;SDS011;6220;53.580;9.758;2024-01-10T14:18:39;9.43;;;7.40;;
12312;SDS011;6220;53.580;9.758;2024-01-10T14:21:05;9.20;;;7.40;;
12312;SDS011;6220;53.580;9.758;2024-01-10T14:23:30;9.47;;;7.07;;
12312;SDS011;6220;53.580;9.758;2024-01-10T14:25:56;9.20;;;7.93;;
12312;SDS011;6220;53.580;9.758;2024-01-10T14:28:21;10.50;;;8.10;;
12312;SDS011;6220;53.580;9.758;2024-01-10T14:30:48;10.33;;;8.23;;
12312;SDS011;6220;53.580;9.758;2024-01-10T14:33:14;9.20;;;7.50;;
12312;SDS011;6220;53.580;9.758;2024-01-10T14:35:40;11.07;;;7.80;;
12312;SDS011;6220;53.580;9.758;2024-01-10T14:38:05;13.03;;;8.00;;
12312;SDS011;6220;53.580;9.758;2024-01-10T14:40:31;9.70;;;8.17;;
12312;SDS011;6220;53.580;9.758;2024-01-10T14:42:57;10.10;;;7.63;;
12312;SDS011;6220;53.580;9.758;2024-01-10T14:45:24;10.60;;;7.50;;
12312;SDS011;6220;53.580;9.758;2024-01-10T14:47:50;10.57;;;7.97;;